Terminal Aerodrome Forecast
Issued by NWS

Current Version | Previous Version | Text Only | Print | Product List | Glossary On
Versions: 1 2 3 4 5 6 7 8 9 10 11 12 13
000
FTUS46 KSTO 202300
TAFSCK
TAF
KSCK 202326Z 2100/2124 14006KT P6SM VCSH OVC070
     FM210300 VRB04KT 2SM BR OVC008
      TEMPO 2112/2116 1/2SM FG OVC002
     FM212000 30007KT 4SM BR BKN020=

USA.gov is the U.S. government's official web portal to all federal, state and local government web resources and services.